Flight Track Log - Related Links

Times and Time Zones

All times are in EDT time to prevent confusion due to time zone crossing. See the SKW5564 flight status page for this flight to view local times or setup timezone preferences in your user account.

Time Position Orientation Groundspeed Altitude Reporting Facility
EDT Latitude Longitude Course Direction KTS MPH feet Rate Location/Type
Thu 06:31:00 PM 39.9415 -103.0811 81° East  Level FlightAware Approximate
Thu 06:32:00 PM 39.9601 -102.9232 81° East  Level FlightAware Approximate
Thu 06:33:00 PM 39.9793 -102.7654 81° East  Level FlightAware Approximate
Thu 06:34:00 PM 39.9961 -102.6071 82° East  Level FlightAware Approximate
Thu 06:35:00 PM 40.0119 -102.4485 83° East  Level FlightAware Approximate
Thu 06:36:00 PM 40.0304 -102.2905 81° East  Level FlightAware Approximate
Thu 06:37:00 PM 40.0474 -102.1328 78° East  Level FlightAware Approximate
Thu 06:38:00 PM 40.0667 -101.9755 90° East  Level FlightAware Approximate
Thu 06:39:00 PM 40.0746 -101.8163 81° East  Level FlightAware Approximate
Thu 06:40:00 PM 40.0932 -101.6581 81° East  Level FlightAware Approximate
Thu 06:41:00 PM 40.1073 -101.4991 85° East  Level FlightAware Approximate
Thu 06:42:00 PM 40.1211 -101.3402 78° East  Level FlightAware Approximate
Thu 06:43:00 PM 40.1472 -101.1837 78° East  Level FlightAware Approximate
Thu 06:44:00 PM 40.1624 -101.0247 83° East  Level FlightAware Approximate
Thu 06:45:00 PM 40.1762 -100.8655 84° East  Level FlightAware Approximate
Thu 06:46:00 PM 40.1897 -100.7062 84° East  Level FlightAware Approximate
Thu 06:47:00 PM 40.2074 -100.5479 75° East  Level FlightAware Approximate
Thu 06:48:00 PM 40.2394 -100.3931 75° East  Level FlightAware Approximate
Thu 06:49:00 PM 40.2713 -100.2381 75° East  Level FlightAware Approximate
Thu 06:50:00 PM 40.3029 -100.0830 75° East  Level FlightAware Approximate
Thu 06:51:00 PM 40.3343 -99.9278 75° East  Level FlightAware Approximate
Thu 06:52:00 PM 40.3655 -99.7724 75° East  Level FlightAware Approximate
Thu 06:53:00 PM 40.3946 -99.6163 78° East  Level FlightAware Approximate
Thu 06:54:00 PM 40.4208 -99.4592 78° East  Level FlightAware Approximate
Thu 06:55:00 PM 40.4500 -99.3035 90° East  Level FlightAware Approximate
Thu 06:56:00 PM 40.4783 -99.1476 74° East  Level FlightAware Approximate
Thu 06:57:00 PM 40.5084 -98.9917 79° East  Level FlightAware Approximate
Thu 06:58:00 PM 40.5347 -98.8344 76° East  Level FlightAware Approximate
Thu 06:59:00 PM 40.5621 -98.6773 78° East  Level FlightAware Approximate
Thu 07:00:00 PM 40.5947 -98.5219 74° East  Level FlightAware Approximate
Thu 07:01:00 PM 40.6284 -98.3668 74° East  Level FlightAware Approximate
Thu 07:02:00 PM 40.6589 -98.2106 78° East  Level FlightAware Approximate
Thu 07:03:00 PM 40.6839 -98.0526 78° East  Level FlightAware Approximate
Thu 07:04:00 PM 40.7135 -97.8961 72° East  Level FlightAware Approximate
Thu 07:05:00 PM 40.7461 -97.7405 78° East  Level FlightAware Approximate
Thu 07:06:00 PM 40.7696 -97.5822 78° East  Level FlightAware Approximate
Thu 07:07:00 PM 40.7960 -97.4242 78° East  Level FlightAware Approximate
Thu 07:08:00 PM 40.8220 -97.2666 76° East  Level FlightAware Approximate
Thu 07:09:00 PM 40.8511 -97.1094 78° East  Level FlightAware Approximate
Thu 07:10:00 PM 40.8756 -96.9507 78° East  Level FlightAware Approximate
Thu 07:11:00 PM 40.9000 -96.7933 90° East  Level FlightAware Approximate
Thu 07:12:00 PM 40.8500 -96.7500 180° South  Level FlightAware Approximate
Thu 07:13:00 PM 40.8509 -96.7591 180° South  Level Estimated
Thu 07:14:00 PM 40.8500 -96.7500 180° South  Level FlightAware Approximate
Thu 07:15:00 PM 40.8509 -96.7591 180° South  Level Estimated
Thu 07:16:00 PM 40.8500 -96.7500 180° South  Level FlightAware Approximate
Thu 07:17:00 PM 40.8509 -96.7591 180° South  Level Estimated
Thu 07:18:00 PM 40.8500 -96.7500 180° South  Level FlightAware Approximate
Thu 07:19:00 PM 40.8509 -96.7591 180° South  Level Estimated
Thu 07:20:00 PM 40.8500 -96.7500 180° South  Level FlightAware Approximate
Thu 07:21:00 PM 40.8509 -96.7591 180° South  Level Estimated
Thu 07:22:00 PM 40.8500 -96.7500 180° South  Level FlightAware Approximate
Thu 07:23:00 PM 40.8509 -96.7591 180° South  Level Estimated
Thu 07:24:00 PM 40.8500 -96.7500 180° South  Level FlightAware Approximate
Thu 07:25:00 PM 40.8509 -96.7591 180° South  Level Estimated

Login

Don't have an account? Register now (free) for customized features, flight alerts, and more!